Time;durP1;ratioP1;P1;durP2;ratioP2;P2;SDS_P1;SDS_P2;PMS_P1;PMS_P2;Temp;Humidity;BMP_temperature;BMP_pressure;BME280_temperature;BME280_humidity;BME280_pressure;Samples;Min_cycle;Max_cycle;Signal;HPM_P1;HPM_P2
2022/11/19 00:02:07;;;;;;;3.08;2.63;;;;;;;15.02;100.00;95353.41;5094787;28;20076;-41
2022/11/19 00:04:36;;;;;;;2.58;2.38;;;;;;;14.68;100.00;95357.78;5095421;28;20581;-41
2022/11/19 00:07:05;;;;;;;3.10;2.80;;;;;;;14.85;100.00;95360.91;5096020;28;20496;-43
2022/11/19 00:09:33;;;;;;;2.72;2.53;;;;;;;15.41;100.00;95355.34;5091616;28;20094;-43
2022/11/19 00:14:48;;;;;;;3.60;2.70;;;;;;;16.11;100.00;95345.19;5099500;28;20101;-41
2022/11/19 00:17:16;;;;;;;2.80;2.60;;;;;;;16.44;100.00;95345.13;5098198;28;20580;-45
2022/11/19 00:19:46;;;;;;;3.40;3.10;;;;;;;16.67;94.72;95349.16;5095650;28;20098;-44
2022/11/19 00:22:14;;;;;;;3.53;2.60;;;;;;;16.26;96.61;95355.59;5102069;28;20090;-43
2022/11/19 00:24:43;;;;;;;3.33;2.70;;;;;;;16.50;99.18;95354.94;5101643;28;20508;-42
2022/11/19 00:27:12;;;;;;;3.40;2.70;;;;;;;16.59;96.44;95353.69;5096662;28;20074;-44
2022/11/19 00:29:40;;;;;;;3.78;3.00;;;;;;;16.74;91.70;95350.81;5094259;28;20458;-43
2022/11/19 00:32:08;;;;;;;3.10;2.80;;;;;;;16.46;92.07;95347.59;5099017;28;20451;-42
2022/11/19 00:34:37;;;;;;;3.97;2.60;;;;;;;16.77;92.65;95346.91;5099303;28;20086;-44
2022/11/19 00:37:07;;;;;;;3.60;2.75;;;;;;;16.98;88.12;95345.81;5095242;28;20087;-41
2022/11/19 00:39:35;;;;;;;3.20;2.90;;;;;;;16.53;90.19;95349.22;5095801;28;20079;-43
2022/11/19 00:42:04;;;;;;;3.53;2.70;;;;;;;16.65;93.22;95345.88;5094606;28;20476;-44
2022/11/19 00:44:32;;;;;;;4.15;2.65;;;;;;;16.67;91.95;95347.31;5094155;28;20083;-43
2022/11/19 00:47:05;;;;;;;3.10;2.50;;;;;;;16.84;87.29;95347.72;5093107;28;20079;-43
2022/11/19 00:49:33;;;;;;;4.88;2.80;;;;;;;16.81;87.97;95356.13;5097387;28;20083;-44
2022/11/19 00:52:02;;;;;;;4.85;3.00;;;;;;;16.70;92.51;95354.09;5097375;28;20102;-41
2022/11/19 00:54:31;;;;;;;3.40;2.97;;;;;;;16.35;96.76;95351.72;5095302;28;20188;-44
2022/11/19 00:57:00;;;;;;;2.80;2.60;;;;;;;16.18;99.23;95356.66;5097474;28;20490;-44
2022/11/19 00:59:28;;;;;;;4.05;2.70;;;;;;;16.08;100.00;95354.41;5093799;28;20083;-40
2022/11/19 01:01:57;;;;;;;3.05;2.75;;;;;;;15.89;100.00;95358.69;5098890;28;20079;-41
2022/11/19 01:04:25;;;;;;;2.50;2.30;;;;;;;15.91;100.00;95363.81;5105761;28;20079;-46
2022/11/19 01:06:54;;;;;;;2.50;2.30;;;;;;;15.90;100.00;95359.53;5097145;28;20075;-41
2022/11/19 01:09:23;;;;;;;2.70;2.50;;;;;;;16.40;98.59;95361.72;5098872;28;20079;-44
2022/11/19 01:11:53;;;;;;;3.08;2.60;;;;;;;16.20;96.51;95356.44;5100232;28;20525;-44
2022/11/19 01:14:21;;;;;;;3.37;2.57;;;;;;;16.67;91.73;95359.81;5102194;28;20075;-46
2022/11/19 01:16:49;;;;;;;2.70;2.50;;;;;;;16.50;92.04;95367.44;5095011;28;20505;-43
2022/11/19 01:19:18;;;;;;;4.63;2.60;;;;;;;16.60;90.48;95362.50;5094478;28;20181;-46
2022/11/19 01:21:46;;;;;;;2.75;2.53;;;;;;;16.99;85.30;95360.75;5096434;28;20086;-42
2022/11/19 01:24:15;;;;;;;3.58;2.50;;;;;;;17.01;81.75;95372.84;5101077;28;20177;-48
2022/11/19 01:26:43;;;;;;;3.58;2.70;;;;;;;16.93;82.26;95372.22;5099837;28;20529;-40
2022/11/19 01:29:14;;;;;;;3.67;3.20;;;;;;;17.18;81.97;95370.50;5092991;28;20083;-40
2022/11/19 01:31:43;;;;;;;2.63;2.42;;;;;;;17.32;77.20;95363.25;5098646;28;20075;-40
2022/11/19 01:34:11;;;;;;;4.25;2.50;;;;;;;17.01;80.90;95364.03;5099096;28;20079;-39
2022/11/19 01:36:40;;;;;;;3.22;2.67;;;;;;;17.08;81.14;95367.47;5097198;28;20184;-47
2022/11/19 01:39:08;;;;;;;2.55;2.28;;;;;;;17.04;82.27;95364.41;5097314;28;20083;-41
2022/11/19 01:41:37;;;;;;;2.67;2.47;;;;;;;16.88;82.75;95367.56;5096001;28;20588;-40
2022/11/19 01:44:07;;;;;;;3.05;2.50;;;;;;;17.01;80.59;95370.16;5100738;28;20099;-42
2022/11/19 01:46:38;;;;;;;4.00;2.72;;;;;;;17.06;81.50;95373.00;5102761;28;20094;-47
2022/11/19 01:49:09;;;;;;;4.07;2.65;;;;;;;16.62;88.70;95368.44;5101754;28;20087;-40
2022/11/19 01:51:40;;;;;;;3.63;2.78;;;;;;;16.49;87.96;95377.25;5098111;28;20071;-44
2022/11/19 01:54:14;;;;;;;3.10;2.70;;;;;;;17.00;84.50;95384.53;5098829;28;20071;-40
2022/11/19 01:56:43;;;;;;;3.25;2.88;;;;;;;16.16;97.84;95385.28;5099570;28;20071;-43
2022/11/19 01:59:14;;;;;;;2.70;2.50;;;;;;;15.79;100.00;95384.84;5104190;28;20510;-40
2022/11/19 02:01:44;;;;;;;4.00;2.70;;;;;;;15.80;100.00;95388.38;5101808;28;20090;-46
2022/11/19 02:04:14;;;;;;;4.03;3.00;;;;;;;15.68;100.00;95379.34;5097593;28;20071;-42
2022/11/19 02:06:43;;;;;;;4.43;2.85;;;;;;;15.77;100.00;95386.09;5095192;28;20614;-47
2022/11/19 02:09:11;;;;;;;6.53;3.10;;;;;;;15.48;100.00;95381.94;5102127;28;20120;-43
2022/11/19 02:11:54;;;;;;;3.53;3.13;;;;;;;15.51;100.00;95384.19;5100092;28;20087;-46
2022/11/19 02:14:32;;;;;;;3.83;3.13;;;;;;;15.42;100.00;95378.25;5093584;28;20059;-41
2022/11/19 02:17:14;;;;;;;5.15;3.35;;;;;;;15.32;100.00;95383.13;5102833;28;20131;-40
2022/11/19 02:20:16;;;;;;;3.83;2.92;;;;;;;15.48;100.00;95379.28;5100184;28;20080;-44
2022/11/19 02:23:05;;;;;;;3.17;2.63;;;;;;;15.09;100.00;95384.28;5076523;28;20094;-44
2022/11/19 02:25:48;;;;;;;3.05;2.75;;;;;;;14.95;100.00;95386.06;5101224;28;20155;-44
2022/11/19 02:28:26;;;;;;;6.63;3.55;;;;;;;15.50;100.00;95391.34;5097651;28;20199;-42
2022/11/19 02:30:59;;;;;;;4.82;3.40;;;;;;;15.33;100.00;95388.25;5099800;28;20063;-41
2022/11/19 02:33:30;;;;;;;5.30;3.90;;;;;;;15.41;100.00;95388.03;5096871;28;20075;-41
2022/11/19 02:36:00;;;;;;;5.50;4.10;;;;;;;15.54;100.00;95383.78;5100905;28;20082;-41
2022/11/19 02:38:34;;;;;;;4.85;3.88;;;;;;;15.80;100.00;95386.53;5100272;28;20426;-42
2022/11/19 02:41:35;;;;;;;4.13;3.15;;;;;;;15.41;100.00;95384.56;5097615;28;20079;-40
2022/11/19 02:46:57;;;;;;;4.65;4.05;;;;;;;16.50;98.66;95380.75;5101140;28;19985;-42
2022/11/19 02:49:27;;;;;;;6.43;4.00;;;;;;;16.58;96.98;95385.81;5094901;28;20459;-41
2022/11/19 02:51:56;;;;;;;6.00;4.30;;;;;;;16.45;96.94;95391.16;5098512;28;20083;-42
2022/11/19 02:54:26;;;;;;;6.45;4.38;;;;;;;16.11;100.00;95391.22;5100230;28;20067;-44
2022/11/19 02:56:57;;;;;;;5.68;4.22;;;;;;;16.13;100.00;95391.00;5096117;28;20447;-41
2022/11/19 03:05:07;;;;;;;5.65;4.55;;;;;;;16.79;89.89;95388.28;5099259;28;20071;-43
2022/11/19 03:07:35;;;;;;;5.03;3.70;;;;;;;15.95;99.67;95394.28;5099095;28;20090;-41
2022/11/19 03:10:07;;;;;;;7.43;4.97;;;;;;;16.49;96.15;95389.75;5099326;28;20465;-47
2022/11/19 03:12:45;;;;;;;7.38;4.50;;;;;;;16.06;100.00;95395.50;5076816;28;20070;-42
2022/11/19 03:18:14;;;;;;;6.38;4.20;;;;;;;16.17;100.00;95402.88;5100971;28;20075;-43
2022/11/19 03:20:47;;;;;;;6.43;4.40;;;;;;;16.21;100.00;95401.47;5097131;28;20106;-43
2022/11/19 03:23:20;;;;;;;6.95;4.40;;;;;;;16.28;98.38;95399.59;5098928;28;20479;-45
2022/11/19 03:25:50;;;;;;;4.55;3.65;;;;;;;16.22;98.51;95400.44;5099955;28;20098;-42
2022/11/19 03:28:22;;;;;;;5.15;4.65;;;;;;;16.45;94.45;95401.81;5101561;28;20530;-44
2022/11/19 03:30:51;;;;;;;5.35;4.35;;;;;;;17.23;82.53;95399.16;5101274;28;20086;-43
2022/11/19 03:33:23;;;;;;;4.90;4.05;;;;;;;17.07;84.66;95400.47;5103349;28;20086;-45
2022/11/19 03:35:54;;;;;;;8.25;4.30;;;;;;;17.13;82.92;95402.28;5093471;28;20525;-41
2022/11/19 03:38:23;;;;;;;;;;;;;;;17.25;81.94;95408.59;5106688;28;20113;-41
2022/11/19 03:40:54;;;;;;;7.63;4.30;;;;;;;17.43;76.57;95401.72;5098412;28;20401;-42
2022/11/19 03:43:26;;;;;;;6.43;4.03;;;;;;;17.25;81.52;95411.25;5100674;28;20075;-42
2022/11/19 03:45:56;;;;;;;5.05;4.00;;;;;;;16.96;84.32;95404.59;5096128;28;20098;-44
2022/11/19 03:48:28;;;;;;;6.20;4.30;;;;;;;17.03;82.25;95407.22;5092799;28;20082;-44
2022/11/19 03:50:58;;;;;;;5.80;4.40;;;;;;;17.25;80.34;95413.09;5100887;28;20086;-44
2022/11/19 03:53:28;;;;;;;8.40;4.75;;;;;;;16.77;88.51;95421.47;5098300;28;20068;-45
2022/11/19 03:55:58;;;;;;;4.38;3.97;;;;;;;16.43;91.71;95425.97;5096184;28;20079;-41
2022/11/19 03:58:26;;;;;;;;;;;;;;;16.29;93.44;95422.50;5099387;28;20071;-41
2022/11/19 04:00:55;;;;;;;5.07;3.53;;;;;;;15.65;100.00;95415.06;5094859;28;19963;-42
2022/11/19 04:03:23;;;;;;;4.85;3.70;;;;;;;15.71;100.00;95422.28;5102319;28;20079;-42
2022/11/19 04:05:53;;;;;;;3.78;3.30;;;;;;;15.13;100.00;95433.31;5097902;28;20079;-41
2022/11/19 04:08:21;;;;;;;3.77;3.20;;;;;;;15.41;100.00;95427.06;5096579;28;20077;-46
2022/11/19 04:10:50;;;;;;;4.65;3.75;;;;;;;15.86;100.00;95417.63;5096490;28;20079;-46
2022/11/19 04:13:18;;;;;;;3.88;3.30;;;;;;;15.63;100.00;95417.94;5102438;28;20338;-41
2022/11/19 04:15:47;;;;;;;2.90;2.70;;;;;;;15.18;100.00;95422.94;5095235;28;20083;-44
2022/11/19 04:18:15;;;;;;;4.35;3.20;;;;;;;14.94;100.00;95434.88;5099744;28;20079;-44
2022/11/19 04:20:44;;;;;;;4.28;3.33;;;;;;;15.04;100.00;95431.03;5094734;28;20095;-42
2022/11/19 04:23:14;;;;;;;4.55;2.97;;;;;;;15.29;100.00;95439.31;5099759;28;20083;-41
2022/11/19 04:25:45;;;;;;;4.53;3.47;;;;;;;15.63;100.00;95433.88;5099764;28;20075;-47
2022/11/19 04:28:14;;;;;;;3.35;2.90;;;;;;;15.48;100.00;95435.06;5100842;28;20083;-40
2022/11/19 04:30:43;;;;;;;4.78;3.55;;;;;;;14.86;100.00;95448.28;5096116;28;20439;-43
2022/11/19 04:33:11;;;;;;;3.28;2.63;;;;;;;14.72;100.00;95447.41;5099996;28;20079;-45
2022/11/19 04:35:39;;;;;;;3.10;2.70;;;;;;;14.82;100.00;95438.28;5095264;28;20094;-46
2022/11/19 04:38:08;;;;;;;4.07;3.25;;;;;;;15.09;100.00;95436.56;5099335;28;20142;-44
2022/11/19 04:40:38;;;;;;;3.35;2.95;;;;;;;15.38;100.00;95427.47;5100981;28;20071;-47
2022/11/19 04:43:06;;;;;;;3.25;2.95;;;;;;;14.64;100.00;95436.13;5100970;28;20083;-42
2022/11/19 04:45:34;;;;;;;5.75;2.90;;;;;;;15.05;100.00;95430.84;5099762;28;20083;-40
2022/11/19 04:48:03;;;;;;;2.97;2.78;;;;;;;14.60;100.00;95434.88;5100471;28;20079;-43
2022/11/19 04:50:31;;;;;;;4.75;2.85;;;;;;;14.77;100.00;95433.56;5096262;28;20083;-47
2022/11/19 04:53:00;;;;;;;3.33;2.70;;;;;;;14.89;100.00;95434.63;5101660;28;20083;-42
2022/11/19 04:55:28;;;;;;;5.25;3.30;;;;;;;14.85;100.00;95429.91;5100540;28;20068;-46
2022/11/19 04:57:58;;;;;;;3.55;2.75;;;;;;;14.81;100.00;95434.81;5100247;28;20084;-45
2022/11/19 05:00:26;;;;;;;3.40;3.10;;;;;;;14.86;100.00;95434.22;5102745;28;20083;-44
2022/11/19 05:02:54;;;;;;;2.83;2.63;;;;;;;15.17;100.00;95437.22;5101419;28;20098;-40
2022/11/19 05:05:23;;;;;;;4.60;3.00;;;;;;;14.54;100.00;95447.09;5105290;28;20071;-43
2022/11/19 05:07:51;;;;;;;3.03;2.83;;;;;;;14.87;100.00;95444.66;5099320;28;20083;-43
2022/11/19 05:10:19;;;;;;;3.53;2.80;;;;;;;14.80;100.00;95437.66;5101106;28;20086;-43
2022/11/19 05:12:48;;;;;;;2.90;2.70;;;;;;;14.86;100.00;95434.22;5102982;28;20526;-41
2022/11/19 05:15:18;;;;;;;3.85;2.92;;;;;;;14.70;100.00;95449.44;5106681;28;20545;-40
2022/11/19 05:17:46;;;;;;;3.17;2.78;;;;;;;15.00;100.00;95430.59;5100104;28;20088;-40
2022/11/19 05:20:16;;;;;;;6.13;2.60;;;;;;;15.10;100.00;95436.34;5101865;28;20521;-45
2022/11/19 05:22:44;;;;;;;3.45;3.03;;;;;;;15.15;100.00;95444.56;5101262;28;20085;-41
2022/11/19 05:25:12;;;;;;;3.40;3.05;;;;;;;15.15;100.00;95441.09;5098800;28;20086;-40
2022/11/19 05:27:41;;;;;;;2.90;2.70;;;;;;;14.80;100.00;95438.47;5082809;28;20067;-42
2022/11/19 05:30:11;;;;;;;2.83;2.60;;;;;;;14.59;100.00;95451.81;5102241;28;20082;-45
2022/11/19 05:32:40;;;;;;;3.33;2.90;;;;;;;14.90;100.00;95451.38;5097807;28;20088;-44
2022/11/19 05:35:09;;;;;;;3.10;2.80;;;;;;;15.38;100.00;95452.22;5100425;28;20544;-45
2022/11/19 05:37:38;;;;;;;4.13;2.85;;;;;;;15.24;100.00;95458.47;5094554;28;20497;-40
2022/11/19 05:40:08;;;;;;;3.10;2.83;;;;;;;15.53;100.00;95446.75;5102361;28;20505;-40
2022/11/19 05:42:36;;;;;;;4.35;3.33;;;;;;;16.04;97.36;95443.59;5099185;28;20083;-42
2022/11/19 05:45:06;;;;;;;3.30;3.00;;;;;;;15.83;100.00;95446.44;5096530;28;20097;-39
2022/11/19 05:47:35;;;;;;;3.75;3.10;;;;;;;15.38;100.00;95452.22;5103219;28;20083;-39
2022/11/19 05:50:06;;;;;;;4.05;3.13;;;;;;;15.84;99.92;95445.41;5097641;28;20510;-43
2022/11/19 05:52:34;;;;;;;3.15;2.85;;;;;;;16.01;96.20;95445.84;5099424;28;20086;-46
2022/11/19 05:55:03;;;;;;;2.80;2.60;;;;;;;15.64;100.00;95453.31;5098437;28;20075;-40
2022/11/19 05:57:31;;;;;;;7.43;3.95;;;;;;;15.46;100.00;95459.19;5101882;28;20090;-47
2022/11/19 06:00:00;;;;;;;2.95;2.75;;;;;;;15.61;100.00;95456.38;5083928;28;20067;-44
2022/11/19 06:02:28;;;;;;;2.70;2.50;;;;;;;15.88;98.00;95460.75;5097720;28;20075;-46
2022/11/19 06:04:56;;;;;;;3.15;2.72;;;;;;;15.26;100.00;95461.78;5103949;28;20082;-43
2022/11/19 06:07:26;;;;;;;2.75;2.55;;;;;;;15.32;100.00;95468.94;5101897;28;20079;-43
2022/11/19 06:09:55;;;;;;;4.33;2.83;;;;;;;15.10;100.00;95476.19;5096974;28;20078;-42
2022/11/19 06:12:23;;;;;;;3.65;2.67;;;;;;;15.14;100.00;95472.16;5101893;28;20501;-40
2022/11/19 06:14:51;;;;;;;4.00;2.80;;;;;;;15.68;100.00;95475.00;5095318;28;20106;-42
2022/11/19 06:17:20;;;;;;;2.67;2.42;;;;;;;15.55;100.00;95476.56;5096271;28;20666;-44
2022/11/19 06:19:48;;;;;;;3.45;2.90;;;;;;;15.56;100.00;95472.91;5096890;28;20087;-40
2022/11/19 06:22:16;;;;;;;3.20;2.90;;;;;;;15.72;100.00;95471.75;5080910;28;20144;-40
2022/11/19 06:24:46;;;;;;;3.28;2.97;;;;;;;16.17;98.04;95466.69;5094685;28;20102;-42
2022/11/19 06:27:15;;;;;;;3.77;2.97;;;;;;;15.73;100.00;95469.94;5098902;28;20079;-48
2022/11/19 06:29:43;;;;;;;3.03;2.70;;;;;;;15.98;96.02;95467.53;5096791;28;20502;-40
2022/11/19 06:32:12;;;;;;;3.10;2.80;;;;;;;15.78;99.97;95468.28;5079005;28;20074;-44
2022/11/19 06:34:40;;;;;;;4.05;2.78;;;;;;;15.75;100.00;95475.84;5100463;28;20554;-41
2022/11/19 06:37:09;;;;;;;3.17;2.88;;;;;;;15.69;100.00;95471.34;5099840;28;20063;-40
2022/11/19 06:39:37;;;;;;;2.85;2.50;;;;;;;16.02;99.56;95474.88;5103497;28;20163;-40
2022/11/19 06:44:52;;;;;;;4.90;2.78;;;;;;;16.45;89.82;95477.16;5089095;28;20094;-45
2022/11/19 06:47:20;;;;;;;3.80;2.67;;;;;;;15.92;99.87;95490.41;5099123;28;20086;-43
2022/11/19 06:49:49;;;;;;;3.80;2.65;;;;;;;16.34;92.56;95488.41;5096804;28;20112;-43
2022/11/19 06:52:17;;;;;;;4.00;2.58;;;;;;;15.86;100.00;95485.88;5077739;28;20173;-39
2022/11/19 06:54:46;;;;;;;3.05;2.80;;;;;;;16.05;98.23;95489.63;5098539;28;20067;-41
2022/11/19 06:57:15;;;;;;;12.75;7.70;;;;;;;15.79;100.00;95499.16;5093707;28;20449;-43
2022/11/19 06:59:44;;;;;;;7.63;4.72;;;;;;;16.63;87.49;95491.69;5095213;28;20531;-40
2022/11/19 07:02:12;;;;;;;4.50;2.85;;;;;;;17.19;81.25;95501.84;5096075;28;20154;-44
2022/11/19 07:04:46;;;;;;;7.10;5.90;;;;;;;17.61;76.40;95502.31;5094920;28;20074;-41
2022/11/19 07:07:14;;;;;;;20.35;10.05;;;;;;;17.41;74.46;95502.38;5097138;28;20079;-41
2022/11/19 07:09:43;;;;;;;18.52;10.20;;;;;;;17.45;74.67;95503.63;5100042;28;20434;-42
2022/11/19 07:12:11;;;;;;;31.27;15.25;;;;;;;17.53;74.89;95495.38;5096852;28;20076;-44
2022/11/19 07:14:41;;;;;;;4.63;3.90;;;;;;;17.37;77.18;95502.00;5101576;28;20083;-43
2022/11/19 07:17:09;;;;;;;3.55;3.08;;;;;;;16.84;82.97;95508.28;5097450;28;20067;-45
2022/11/19 07:19:38;;;;;;;3.08;2.78;;;;;;;17.26;81.21;95506.13;5097989;28;20067;-43
2022/11/19 07:22:06;;;;;;;2.70;2.50;;;;;;;16.59;86.58;95508.06;5098571;28;20087;-41
2022/11/19 07:24:35;;;;;;;2.80;2.60;;;;;;;17.30;80.21;95511.88;5099851;28;20087;-44
2022/11/19 07:27:04;;;;;;;2.97;2.72;;;;;;;17.70;76.64;95504.53;5094538;28;20062;-41
2022/11/19 07:29:32;;;;;;;3.05;2.50;;;;;;;17.34;76.77;95510.41;5101250;28;20530;-40
2022/11/19 07:32:02;;;;;;;3.70;2.60;;;;;;;17.13;80.42;95518.66;5097994;28;20079;-44
2022/11/19 07:34:31;;;;;;;4.07;2.70;;;;;;;16.88;82.17;95527.31;5096094;28;20083;-44
2022/11/19 07:36:59;;;;;;;2.83;2.53;;;;;;;16.78;86.61;95514.44;5096929;28;20063;-46
2022/11/19 07:39:28;;;;;;;2.72;2.53;;;;;;;16.35;91.67;95519.34;5098560;28;20513;-42
2022/11/19 07:44:42;;;;;;;2.83;2.35;;;;;;;16.16;97.18;95528.91;5100633;28;20067;-40
2022/11/19 07:47:12;;;;;;;2.30;2.10;;;;;;;16.71;97.50;95526.88;5096434;28;20524;-41
2022/11/19 07:49:41;;;;;;;2.40;2.20;;;;;;;16.39;98.43;95533.84;5099571;28;20079;-41
2022/11/19 07:52:09;;;;;;;1.90;1.80;;;;;;;16.48;98.03;95519.34;5096365;28;20070;-42
2022/11/19 07:54:37;;;;;;;2.65;2.10;;;;;;;16.50;96.45;95519.13;5092809;28;20072;-40
2022/11/19 07:57:06;;;;;;;2.20;2.00;;;;;;;16.99;92.94;95515.22;5100451;28;20075;-46
2022/11/19 07:59:34;;;;;;;2.30;2.03;;;;;;;16.91;91.67;95526.09;5098934;28;20079;-45
2022/11/19 08:02:03;;;;;;;2.45;2.25;;;;;;;17.24;90.27;95521.53;5083485;28;20078;-44
2022/11/19 08:04:33;;;;;;;3.35;2.30;;;;;;;17.67;86.17;95523.63;5101860;28;20465;-45
2022/11/19 08:07:02;;;;;;;2.47;2.17;;;;;;;17.01;88.54;95521.97;5098607;28;20062;-46
2022/11/19 08:09:30;;;;;;;3.75;2.20;;;;;;;17.99;78.97;95527.19;5094677;28;20084;-42
2022/11/19 08:11:59;;;;;;;2.50;2.10;;;;;;;17.71;72.35;95524.00;5099811;28;20067;-42
2022/11/19 08:14:27;;;;;;;2.10;1.90;;;;;;;17.83;80.19;95525.03;5100688;28;20153;-44
2022/11/19 08:19:43;;;;;;;2.17;1.98;;;;;;;18.52;69.21;95528.69;5097645;28;20091;-42
2022/11/19 08:22:11;;;;;;;2.28;1.98;;;;;;;18.93;68.21;95520.16;5092630;28;20090;-43
2022/11/19 08:24:40;;;;;;;2.30;2.10;;;;;;;18.51;66.72;95532.38;5102080;28;20083;-46
2022/11/19 08:27:08;;;;;;;2.35;1.90;;;;;;;18.51;65.87;95529.72;5096618;28;20521;-44
2022/11/19 08:29:37;;;;;;;3.40;2.05;;;;;;;19.33;63.20;95526.97;5093932;28;20084;-41
2022/11/19 08:32:05;;;;;;;2.97;1.98;;;;;;;18.95;63.75;95534.09;5095093;28;20091;-45
2022/11/19 08:34:34;;;;;;;1.98;1.77;;;;;;;18.41;69.13;95529.38;5096462;28;20094;-42
2022/11/19 08:37:03;;;;;;;2.65;1.98;;;;;;;18.68;66.73;95530.00;5100485;28;20075;-41
2022/11/19 08:39:32;;;;;;;3.17;2.07;;;;;;;19.28;63.90;95530.31;5096941;28;20074;-41
2022/11/19 08:44:46;;;;;;;3.70;1.83;;;;;;;18.62;65.78;95542.38;5096902;28;20082;-41
2022/11/19 08:47:15;;;;;;;2.10;1.90;;;;;;;18.41;68.98;95537.38;5100813;28;20584;-42
2022/11/19 08:49:43;;;;;;;2.15;1.95;;;;;;;18.14;73.91;95537.56;5094474;28;20583;-50
2022/11/19 08:52:13;;;;;;;2.75;2.03;;;;;;;19.14;66.45;95544.84;5097945;28;20501;-40
2022/11/19 08:54:42;;;;;;;2.75;1.90;;;;;;;18.73;64.77;95541.69;5097030;28;20067;-47
2022/11/19 08:57:10;;;;;;;2.00;1.80;;;;;;;18.56;69.00;95542.44;5095246;28;20122;-48
2022/11/19 08:59:38;;;;;;;2.80;1.90;;;;;;;18.40;65.78;95536.56;5092431;28;20063;-41
2022/11/19 09:02:10;;;;;;;2.55;1.90;;;;;;;17.78;75.96;95543.50;5100066;28;20079;-47
2022/11/19 09:04:38;;;;;;;2.35;1.90;;;;;;;18.38;71.71;95546.66;5094813;28;20466;-46
2022/11/19 09:07:07;;;;;;;2.15;1.95;;;;;;;18.46;72.49;95540.25;5092939;28;20067;-45
2022/11/19 09:09:36;;;;;;;1.80;1.70;;;;;;;17.70;75.57;95546.38;5093958;28;20083;-44
2022/11/19 09:12:05;;;;;;;2.33;1.83;;;;;;;17.66;79.06;95550.50;5099148;28;20072;-44
2022/11/19 09:14:34;;;;;;;1.90;1.80;;;;;;;17.26;80.53;95551.44;5100965;28;20083;-43
2022/11/19 09:17:02;;;;;;;1.77;1.67;;;;;;;16.93;84.17;95556.00;5097421;28;20079;-39
2022/11/19 09:19:31;;;;;;;2.20;1.95;;;;;;;17.20;83.68;95567.44;5098103;28;20782;-45
2022/11/19 09:21:59;;;;;;;2.10;1.90;;;;;;;17.26;79.40;95561.28;5098016;28;20079;-48
2022/11/19 09:24:27;;;;;;;2.78;2.08;;;;;;;17.57;78.47;95557.91;5099849;28;20087;-44
2022/11/19 09:26:57;;;;;;;2.30;2.10;;;;;;;18.06;72.93;95558.34;5103350;28;20072;-43
2022/11/19 09:29:29;;;;;;;2.13;1.92;;;;;;;17.44;75.29;95568.59;5104158;28;20083;-44
2022/11/19 09:31:58;;;;;;;2.10;1.90;;;;;;;17.11;78.25;95569.50;5098996;28;20459;-40
2022/11/19 09:34:26;;;;;;;2.78;2.10;;;;;;;17.21;81.31;95574.41;5097108;28;20079;-44
2022/11/19 09:36:54;;;;;;;2.30;2.08;;;;;;;17.23;82.98;95570.50;5101456;28;20483;-40
2022/11/19 09:39:23;;;;;;;2.30;2.10;;;;;;;17.72;79.34;95561.16;5096361;28;20086;-41
2022/11/19 09:41:57;;;;;;;3.22;1.85;;;;;;;18.15;73.39;95571.22;5099493;28;20804;-41
2022/11/19 09:44:40;;;;;;;2.35;1.77;;;;;;;17.81;76.85;95575.09;5096444;28;20079;-43
2022/11/19 09:47:19;;;;;;;2.30;1.80;;;;;;;18.13;79.30;95564.47;5101259;28;20079;-45
2022/11/19 09:49:52;;;;;;;2.20;1.90;;;;;;;17.93;82.59;95568.06;5100349;28;20071;-45
2022/11/19 09:52:23;;;;;;;3.42;1.80;;;;;;;18.16;71.54;95564.84;5097703;28;20090;-48
2022/11/19 09:54:53;;;;;;;2.80;2.10;;;;;;;18.48;76.64;95568.38;5101735;28;20075;-45
2022/11/19 09:57:27;;;;;;;1.70;1.60;;;;;;;18.04;78.91;95566.56;5100173;28;20079;-48
2022/11/19 09:59:57;;;;;;;2.72;1.98;;;;;;;17.49;82.50;95574.97;5097769;28;20079;-41
2022/11/19 10:02:26;;;;;;;2.63;2.00;;;;;;;17.97;79.51;95571.13;5104156;28;20076;-41
2022/11/19 10:04:54;;;;;;;2.35;1.95;;;;;;;17.58;78.95;95569.38;5096647;28;20537;-42
2022/11/19 10:07:31;;;;;;;2.13;2.00;;;;;;;18.36;72.91;95564.75;5095254;28;20541;-41
2022/11/19 10:10:07;;;;;;;3.60;2.40;;;;;;;18.00;76.94;95570.69;5104203;28;20083;-46
2022/11/19 10:12:54;;;;;;;3.22;2.20;;;;;;;18.14;74.39;95572.28;5095276;28;20094;-46
2022/11/19 10:15:26;;;;;;;2.28;2.00;;;;;;;18.54;69.63;95565.84;5098386;28;20067;-43
2022/11/19 10:18:02;;;;;;;3.55;2.05;;;;;;;18.54;74.52;95563.19;5100786;28;20066;-44
2022/11/19 10:20:49;;;;;;;2.08;1.85;;;;;;;17.99;80.24;95563.72;5098286;28;20479;-49
2022/11/19 10:23:19;;;;;;;2.10;1.90;;;;;;;17.89;78.02;95564.16;5097729;28;20078;-46
2022/11/19 10:25:49;;;;;;;3.15;2.20;;;;;;;17.69;80.36;95574.91;5098780;28;20086;-41
2022/11/19 10:28:21;;;;;;;2.42;2.00;;;;;;;17.28;92.11;95575.22;5095413;28;20564;-46
2022/11/19 10:30:51;;;;;;;2.60;2.20;;;;;;;17.16;96.36;95569.69;5101327;28;20087;-41
2022/11/19 10:33:25;;;;;;;2.22;2.03;;;;;;;16.65;100.00;95572.16;5099999;28;20094;-44
2022/11/19 10:35:56;;;;;;;2.00;1.80;;;;;;;16.28;100.00;95575.19;5095772;28;20130;-41
2022/11/19 10:38:27;;;;;;;2.45;2.22;;;;;;;17.21;100.00;95579.75;5096696;28;20075;-41
2022/11/19 10:40:58;;;;;;;2.85;2.17;;;;;;;17.22;100.00;95576.84;5097163;28;20565;-41
2022/11/19 10:43:30;;;;;;;2.42;2.17;;;;;;;17.56;100.00;95570.44;5101588;28;20774;-41
2022/11/19 10:46:00;;;;;;;2.60;2.20;;;;;;;18.33;90.83;95565.16;5098503;28;20079;-42
2022/11/19 10:48:37;;;;;;;3.05;2.40;;;;;;;17.64;93.03;95560.56;5101197;28;20090;-42
2022/11/19 10:51:12;;;;;;;4.00;2.10;;;;;;;17.93;92.43;95570.72;5103434;28;20521;-40
2022/11/19 10:53:41;;;;;;;2.10;1.90;;;;;;;17.96;84.96;95561.47;5102087;28;20071;-41
2022/11/19 10:56:13;;;;;;;3.42;1.70;;;;;;;18.25;76.21;95562.75;5096116;28;20071;-42
2022/11/19 10:58:46;;;;;;;1.90;1.80;;;;;;;17.91;80.10;95554.09;5098740;28;20076;-44
2022/11/19 11:01:20;;;;;;;3.65;2.00;;;;;;;17.38;83.24;95556.97;5092330;28;20546;-47
2022/11/19 11:03:52;;;;;;;2.60;1.85;;;;;;;17.46;85.43;95562.03;5101518;28;20616;-41
2022/11/19 11:06:20;;;;;;;3.38;1.65;;;;;;;16.99;88.55;95571.16;5099135;28;20084;-42
2022/11/19 11:08:50;;;;;;;1.60;1.50;;;;;;;16.63;96.57;95556.38;5098148;28;20075;-39
2022/11/19 11:11:23;;;;;;;1.80;1.70;;;;;;;16.21;100.00;95576.19;5102438;28;20079;-41
2022/11/19 11:16:43;;;;;;;1.85;1.75;;;;;;;15.76;100.00;95568.69;5102282;28;20091;-42
2022/11/19 11:19:13;;;;;;;3.33;2.20;;;;;;;16.50;100.00;95553.72;5099707;28;20469;-39
2022/11/19 11:21:42;;;;;;;3.08;2.30;;;;;;;16.55;100.00;95562.75;5097809;28;20085;-42
2022/11/19 11:24:12;;;;;;;2.88;2.20;;;;;;;16.53;100.00;95558.63;5095198;28;20090;-41
2022/11/19 11:26:40;;;;;;;4.28;2.30;;;;;;;16.84;100.00;95539.41;5102117;28;20079;-43
2022/11/19 11:32:26;;;;;;;2.28;2.08;;;;;;;17.29;100.00;95544.88;5078482;28;20641;-40
2022/11/19 11:34:55;;;;;;;2.22;1.88;;;;;;;16.78;100.00;95535.72;5058338;28;20488;-45
2022/11/19 11:37:24;;;;;;;2.10;1.90;;;;;;;17.31;100.00;95542.84;5065627;28;20076;-43
2022/11/19 11:39:55;;;;;;;1.70;1.60;;;;;;;17.28;99.03;95538.72;5066679;28;20084;-42
2022/11/19 11:42:25;;;;;;;1.83;1.73;;;;;;;17.35;86.60;95533.38;5072722;28;20080;-45
2022/11/19 11:44:56;;;;;;;2.30;1.60;;;;;;;17.24;86.35;95526.00;5068265;28;20098;-41
2022/11/19 11:47:28;;;;;;;1.70;1.60;;;;;;;17.53;82.10;95533.53;5070960;28;20553;-47
2022/11/19 11:50:03;;;;;;;1.73;1.50;;;;;;;17.31;88.84;95532.16;5059954;28;20084;-41
2022/11/19 11:52:35;;;;;;;1.70;1.60;;;;;;;17.80;87.73;95533.44;5070751;28;20079;-44
2022/11/19 11:55:06;;;;;;;1.50;1.40;;;;;;;17.15;90.36;95522.78;5065590;28;20105;-42
2022/11/19 11:57:35;;;;;;;1.90;1.75;;;;;;;17.45;86.75;95532.94;5070450;28;20512;-43
2022/11/19 12:00:30;;;;;;;1.50;1.40;;;;;;;18.17;79.52;95526.47;5069283;28;20086;-39
2022/11/19 12:03:02;;;;;;;1.70;1.60;;;;;;;17.51;91.95;95538.22;5062789;28;20087;-43
2022/11/19 12:05:40;;;;;;;2.28;1.50;;;;;;;18.21;80.87;95535.69;5066620;28;20549;-45
2022/11/19 12:08:16;;;;;;;1.98;1.40;;;;;;;17.25;91.03;95549.81;5065865;28;20049;-42
2022/11/19 12:10:49;;;;;;;1.30;1.20;;;;;;;17.52;86.28;95531.88;5061729;28;20072;-41
2022/11/19 12:13:46;;;;;;;1.40;1.30;;;;;;;17.40;84.08;95530.91;5062983;28;20099;-41
2022/11/19 12:16:22;;;;;;;5.82;1.48;;;;;;;17.87;83.12;95530.75;5060349;28;20721;-43
2022/11/19 12:19:02;;;;;;;1.00;1.00;;;;;;;17.36;88.67;95519.03;5063661;28;20123;-47